createdAt,value
2023-05-05T00:01:46.613Z,100.00
2023-05-05T00:06:49.051Z,100.00
2023-05-05T00:11:50.904Z,100.00
2023-05-05T00:16:52.778Z,100.00
2023-05-05T00:21:54.619Z,100.00
2023-05-05T00:26:56.444Z,100.00
2023-05-05T00:31:58.251Z,100.00
2023-05-05T00:37:00.104Z,100.00
2023-05-05T00:42:01.958Z,100.00
2023-05-05T00:47:04.261Z,100.00
2023-05-05T00:52:07.503Z,100.00
2023-05-05T00:57:10.937Z,100.00
2023-05-05T01:02:13.010Z,100.00
2023-05-05T01:07:39.620Z,100.00
2023-05-05T01:12:44.329Z,100.00
2023-05-05T01:17:56.015Z,100.00
2023-05-05T01:23:03.939Z,100.00
2023-05-05T01:28:19.639Z,100.00
2023-05-05T01:33:27.498Z,100.00
2023-05-05T01:38:44.612Z,100.00
2023-05-05T01:43:50.366Z,100.00
2023-05-05T01:48:53.846Z,100.00
2023-05-05T01:53:59.321Z,100.00
2023-05-05T01:59:02.471Z,100.00
2023-05-05T02:04:07.177Z,100.00
2023-05-05T02:09:12.141Z,100.00
2023-05-05T02:14:15.435Z,100.00
2023-05-05T02:19:21.511Z,100.00
2023-05-05T02:24:25.500Z,100.00
2023-05-05T02:29:34.654Z,100.00
2023-05-05T02:34:40.356Z,100.00
2023-05-05T02:39:58.432Z,100.00
2023-05-05T02:45:10.365Z,100.00
2023-05-05T02:50:18.757Z,100.00
2023-05-05T02:55:42.341Z,100.00
2023-05-05T03:01:18.879Z,100.00
2023-05-05T03:06:22.892Z,100.00
2023-05-05T03:11:34.618Z,100.00
2023-05-05T03:16:42.632Z,100.00
2023-05-05T03:21:45.826Z,100.00
2023-05-05T03:26:49.969Z,100.00
2023-05-05T03:31:55.354Z,100.00
2023-05-05T03:36:57.380Z,100.00
2023-05-05T03:41:59.618Z,100.00
2023-05-05T03:47:05.597Z,100.00
2023-05-05T03:52:10.105Z,100.00
2023-05-05T03:57:13.039Z,100.00
2023-05-05T04:02:18.491Z,100.00
2023-05-05T04:07:22.788Z,100.00
2023-05-05T04:12:25.040Z,100.00
2023-05-05T04:17:27.595Z,100.00
2023-05-05T04:22:30.205Z,100.00
2023-05-05T04:27:32.754Z,100.00
2023-05-05T04:32:35.533Z,100.00
2023-05-05T04:37:37.651Z,100.00
2023-05-05T04:42:39.885Z,100.00
2023-05-05T04:47:41.878Z,100.00
2023-05-05T04:52:43.891Z,100.00
2023-05-05T04:57:45.794Z,100.00
2023-05-05T05:02:47.747Z,100.00
2023-05-05T05:07:49.661Z,100.00
2023-05-05T05:12:51.573Z,100.00
2023-05-05T05:17:53.700Z,100.00
2023-05-05T05:22:55.694Z,100.00
2023-05-05T05:28:08.852Z,100.00
2023-05-05T05:33:15.090Z,100.00
2023-05-05T05:38:18.140Z,100.00
2023-05-05T05:43:21.358Z,100.00
2023-05-05T05:48:25.107Z,100.00
2023-05-05T05:53:27.595Z,100.00
2023-05-05T05:58:30.300Z,100.00
2023-05-05T06:03:32.548Z,100.00
2023-05-05T06:08:34.507Z,100.00
2023-05-05T06:13:36.522Z,100.00
2023-05-05T06:18:39.147Z,100.00
2023-05-05T06:23:42.204Z,100.00
2023-05-05T06:28:44.268Z,100.00
2023-05-05T06:33:46.093Z,100.00
2023-05-05T06:38:47.896Z,100.00
2023-05-05T06:43:49.743Z,100.00
2023-05-05T06:48:51.895Z,100.00
2023-05-05T06:53:53.787Z,100.00
2023-05-05T06:58:55.895Z,100.00
2023-05-05T07:03:57.754Z,100.00
2023-05-05T07:08:59.567Z,100.00
2023-05-05T07:14:01.421Z,100.00
2023-05-05T07:19:06.242Z,100.00
2023-05-05T07:24:08.236Z,100.00
2023-05-05T07:29:10.014Z,100.00
2023-05-05T07:34:11.870Z,100.00
2023-05-05T07:39:15.334Z,100.00
2023-05-05T07:44:17.157Z,100.00
2023-05-05T07:49:20.112Z,100.00
2023-05-05T07:54:21.907Z,100.00
2023-05-05T07:59:23.754Z,100.00
2023-05-05T08:04:25.700Z,100.00
2023-05-05T08:09:27.528Z,100.00
2023-05-05T08:14:30.032Z,100.00
2023-05-05T08:19:31.865Z,100.00
2023-05-05T08:24:33.700Z,100.00
2023-05-05T08:29:35.713Z,100.00
2023-05-05T08:34:37.530Z,100.00
2023-05-05T08:39:39.328Z,91.07
2023-05-05T08:44:41.281Z,98.83
2023-05-05T08:49:47.207Z,73.41
2023-05-05T08:55:00.865Z,68.17
2023-05-05T09:00:03.865Z,66.63
2023-05-05T09:05:07.318Z,76.93
2023-05-05T09:10:11.169Z,76.80
2023-05-05T09:15:14.719Z,80.01
2023-05-05T09:20:16.725Z,71.91
2023-05-05T09:25:18.971Z,68.46
2023-05-05T09:30:25.221Z,70.53
2023-05-05T09:35:27.161Z,62.12
2023-05-05T09:40:48.372Z,68.73
2023-05-05T09:45:51.247Z,60.75
2023-05-05T09:50:53.440Z,61.06
2023-05-05T09:55:59.957Z,48.63
2023-05-05T10:01:01.803Z,48.72
2023-05-05T10:06:04.710Z,53.53
2023-05-05T10:11:07.243Z,48.99
2023-05-05T10:16:11.766Z,55.79
2023-05-05T10:21:19.975Z,57.86
2023-05-05T10:26:23.425Z,61.54
2023-05-05T10:31:33.895Z,53.57
2023-05-05T10:36:38.577Z,59.61
2023-05-05T10:41:41.472Z,44.89
2023-05-05T10:46:44.696Z,47.34
2023-05-05T10:51:55.601Z,51.17
2023-05-05T10:56:59.095Z,53.28
2023-05-05T11:02:01.167Z,50.19
2023-05-05T11:07:12.469Z,48.86
2023-05-05T11:12:16.421Z,39.99
2023-05-05T11:17:46.941Z,37.90
2023-05-05T11:23:04.186Z,33.29
2023-05-05T11:28:09.358Z,30.75
2023-05-05T11:33:33.239Z,30.22
2023-05-05T11:38:44.251Z,28.86
2023-05-05T11:43:46.337Z,29.26
2023-05-05T11:48:49.344Z,31.29
2023-05-05T11:53:51.219Z,32.71
2023-05-05T11:59:10.180Z,31.22
2023-05-05T12:04:13.223Z,28.42
2023-05-05T12:09:23.022Z,31.21
2023-05-05T12:14:25.762Z,27.69
2023-05-05T12:19:33.375Z,28.00
2023-05-05T12:24:35.471Z,29.41
2023-05-05T12:29:38.143Z,32.63
2023-05-05T12:34:40.104Z,32.89
2023-05-05T12:39:41.998Z,32.85
2023-05-05T12:44:44.924Z,31.90
2023-05-05T12:49:47.511Z,32.98
2023-05-05T12:54:56.254Z,33.21
2023-05-05T12:59:58.395Z,27.96
2023-05-05T13:05:00.236Z,28.98
2023-05-05T13:10:10.877Z,30.06
2023-05-05T13:15:12.849Z,30.79
2023-05-05T13:20:14.693Z,32.14
2023-05-05T13:25:16.703Z,29.10
2023-05-05T13:30:18.621Z,26.25
2023-05-05T13:35:20.548Z,27.24
2023-05-05T13:40:23.820Z,30.11
2023-05-05T13:45:27.589Z,31.36
2023-05-05T13:50:29.533Z,29.81
2023-05-05T13:55:31.533Z,32.83
2023-05-05T14:00:34.744Z,31.51
2023-05-05T14:05:38.833Z,34.10
2023-05-05T14:10:40.698Z,34.65
2023-05-05T14:15:42.639Z,38.55
2023-05-05T14:20:44.501Z,38.47
2023-05-05T14:25:46.417Z,40.00
2023-05-05T14:30:48.270Z,40.86
2023-05-05T14:35:50.203Z,38.16
2023-05-05T14:40:52.068Z,39.40
2023-05-05T14:45:53.971Z,41.11
2023-05-05T14:50:56.004Z,38.83
2023-05-05T14:55:57.824Z,39.38
2023-05-05T15:01:00.570Z,38.74
2023-05-05T15:06:02.537Z,43.12
2023-05-05T15:11:04.713Z,57.16
2023-05-05T15:16:10.110Z,67.23
2023-05-05T15:21:11.984Z,75.98
2023-05-05T15:26:13.849Z,75.45
2023-05-05T15:31:15.767Z,78.02
2023-05-05T15:36:22.618Z,80.56
2023-05-05T15:41:27.213Z,87.42
2023-05-05T15:46:33.249Z,82.40
2023-05-05T15:51:35.263Z,80.72
2023-05-05T15:56:37.159Z,86.98
2023-05-05T16:01:39.158Z,81.81
2023-05-05T16:06:41.178Z,83.32
2023-05-05T16:11:43.355Z,85.66
2023-05-05T16:16:45.214Z,90.55
2023-05-05T16:21:48.241Z,87.52
2023-05-05T16:26:50.110Z,91.94
2023-05-05T16:31:52.104Z,100.00
2023-05-05T16:36:53.965Z,100.00
2023-05-05T16:41:55.779Z,100.00
2023-05-05T16:46:58.399Z,100.00
2023-05-05T16:52:00.367Z,100.00
2023-05-05T16:57:03.830Z,100.00
2023-05-05T17:02:06.107Z,100.00
2023-05-05T17:07:07.986Z,100.00
2023-05-05T17:12:09.910Z,100.00
2023-05-05T17:17:12.063Z,100.00
2023-05-05T17:22:13.883Z,100.00
2023-05-05T17:27:15.676Z,100.00
2023-05-05T17:32:17.561Z,100.00
2023-05-05T17:37:19.409Z,100.00
2023-05-05T17:42:23.093Z,100.00
2023-05-05T17:47:25.106Z,100.00
2023-05-05T17:52:27.087Z,100.00
2023-05-05T17:57:28.945Z,100.00
2023-05-05T18:02:30.958Z,100.00
2023-05-05T18:07:33.725Z,100.00
2023-05-05T18:12:35.783Z,100.00
2023-05-05T18:17:38.064Z,100.00
2023-05-05T18:22:39.978Z,100.00
2023-05-05T18:27:41.891Z,100.00
2023-05-05T18:32:43.918Z,100.00
2023-05-05T18:37:45.822Z,100.00
2023-05-05T18:42:47.698Z,100.00
2023-05-05T18:47:49.580Z,100.00
2023-05-05T18:52:51.465Z,100.00
2023-05-05T18:57:53.478Z,100.00
2023-05-05T19:02:55.345Z,100.00
2023-05-05T19:07:57.232Z,100.00
2023-05-05T19:12:59.266Z,100.00
2023-05-05T19:18:01.296Z,100.00
2023-05-05T19:23:05.229Z,100.00
2023-05-05T19:28:07.168Z,100.00
2023-05-05T19:33:09.219Z,100.00
2023-05-05T19:38:11.226Z,100.00
2023-05-05T19:43:13.191Z,100.00
2023-05-05T19:48:15.793Z,100.00
2023-05-05T19:53:17.661Z,100.00
2023-05-05T19:58:19.624Z,100.00
2023-05-05T20:03:21.627Z,100.00
2023-05-05T20:08:23.535Z,100.00
2023-05-05T20:13:25.401Z,100.00
2023-05-05T20:18:27.276Z,100.00
2023-05-05T20:23:29.175Z,100.00
2023-05-05T20:28:31.779Z,100.00
2023-05-05T20:33:34.439Z,100.00
2023-05-05T20:38:36.303Z,100.00
2023-05-05T20:43:41.043Z,100.00
2023-05-05T20:48:44.503Z,100.00
2023-05-05T20:53:46.387Z,100.00
2023-05-05T20:58:48.358Z,100.00
2023-05-05T21:03:50.528Z,100.00
2023-05-05T21:08:52.373Z,100.00
2023-05-05T21:13:54.216Z,100.00
2023-05-05T21:18:56.159Z,100.00
2023-05-05T21:23:58.062Z,100.00
2023-05-05T21:28:59.933Z,100.00
2023-05-05T21:34:02.532Z,100.00
2023-05-05T21:39:04.659Z,100.00
2023-05-05T21:44:06.543Z,100.00
2023-05-05T21:49:26.512Z,100.00
2023-05-05T21:54:28.362Z,100.00
2023-05-05T21:59:30.189Z,100.00
2023-05-05T22:04:32.016Z,100.00
2023-05-05T22:09:34.053Z,100.00
2023-05-05T22:14:36.066Z,100.00
2023-05-05T22:19:37.868Z,100.00
2023-05-05T22:24:39.676Z,100.00
2023-05-05T22:29:41.555Z,100.00
2023-05-05T22:34:43.375Z,100.00
2023-05-05T22:39:45.146Z,100.00
2023-05-05T22:44:47.092Z,100.00
2023-05-05T22:49:49.122Z,100.00
2023-05-05T22:54:51.023Z,100.00
2023-05-05T22:59:53.004Z,100.00
2023-05-05T23:04:54.896Z,100.00
2023-05-05T23:09:56.720Z,100.00
2023-05-05T23:14:58.632Z,100.00
2023-05-05T23:20:00.502Z,100.00
2023-05-05T23:25:02.306Z,100.00
2023-05-05T23:30:04.498Z,100.00
2023-05-05T23:35:06.950Z,100.00
2023-05-05T23:40:09.267Z,100.00
2023-05-05T23:45:11.712Z,100.00
2023-05-05T23:50:13.777Z,100.00
2023-05-05T23:55:15.564Z,100.00
